Flight Briefing for CPX202

Departure Arrival
Washington Dulles International Airport (KIAD)
Click to view FAA NOTAMS
Miami International Airport (KMIA)
Click to view FAA NOTAMS
Departure Time Arrival Time
N/A N/A
Aircraft Distance
B767-300BDSF 894nm
Departure METAR Arrival METAR
KIAD 192152Z 34003KT 10SM FEW180 BKN250 03/M13 A3058 RMK AO2 SLP360 T00331133 KMIA 192153Z 11013KT 10SM BKN030 27/20 A3013 RMK AO2 SLP201 T02670200
Suggested Route
JDUBB2 GSO J75 CAE J51 SAV J103 OMN HILEY7


View recent IFR Routes data
Notes



Charts and Procedures

Charts for KIAD
No chart available
Charts for KMIA
No chart available

Ventusky Weather




{"cat":null,"equip":null,"transponder":null,"pbn":"PBN\/","maxpax":null,"oew":"0.0","mzfw":"0.0","mtow":"0.0","mlw":"0.0","maxfuel":"0.0"} DEVELOPMENTAL TEST USE ONLY